sensor_id;sensor_type;location;lat;lon;timestamp;noise_LAeq;noise_LA_min;noise_LA_max;noise_LA01;noise_LA95
1754;Laerm;58380;48.312;9.246;2023-07-16T07:19:55;40.99;33.23;54.03;;
1754;Laerm;58380;48.312;9.246;2023-07-16T07:22:20;40.99;34.37;49.13;;
1754;Laerm;58380;48.312;9.246;2023-07-16T07:24:48;39.83;32.80;51.55;;
1754;Laerm;58380;48.312;9.246;2023-07-16T07:27:14;42.20;35.43;52.50;;
1754;Laerm;58380;48.312;9.246;2023-07-16T07:29:40;40.03;31.66;52.69;;
1754;Laerm;58380;48.312;9.246;2023-07-16T07:32:07;41.93;30.53;59.94;;
1754;Laerm;58380;48.312;9.246;2023-07-16T07:34:33;41.95;31.62;51.49;;
1754;Laerm;58380;48.312;9.246;2023-07-16T07:36:58;41.92;31.32;52.43;;
1754;Laerm;58380;48.312;9.246;2023-07-16T07:39:23;43.60;33.29;58.88;;
1754;Laerm;58380;48.312;9.246;2023-07-16T07:41:49;41.66;32.88;49.67;;
1754;Laerm;58380;48.312;9.246;2023-07-16T07:44:15;42.94;34.91;57.36;;
1754;Laerm;58380;48.312;9.246;2023-07-16T07:46:40;42.62;33.40;57.64;;
1754;Laerm;58380;48.312;9.246;2023-07-16T07:49:05;42.05;35.39;52.82;;
1754;Laerm;58380;48.312;9.246;2023-07-16T07:51:31;41.71;33.46;52.31;;
1754;Laerm;58380;48.312;9.246;2023-07-16T07:53:56;41.45;33.97;52.95;;
1754;Laerm;58380;48.312;9.246;2023-07-16T07:56:22;41.76;33.76;55.00;;
1754;Laerm;58380;48.312;9.246;2023-07-16T07:58:47;41.98;34.25;59.92;;
1754;Laerm;58380;48.312;9.246;2023-07-16T08:01:13;46.36;33.24;74.41;;
1754;Laerm;58380;48.312;9.246;2023-07-16T08:03:38;41.19;33.45;52.42;;
1754;Laerm;58380;48.312;9.246;2023-07-16T08:06:04;42.39;34.20;57.36;;
1754;Laerm;58380;48.312;9.246;2023-07-16T08:08:29;45.54;35.55;63.47;;
1754;Laerm;58380;48.312;9.246;2023-07-16T08:10:55;50.02;36.13;63.75;;
1754;Laerm;58380;48.312;9.246;2023-07-16T08:13:21;47.73;34.68;62.28;;
1754;Laerm;58380;48.312;9.246;2023-07-16T08:15:46;41.32;33.90;53.32;;
1754;Laerm;58380;48.312;9.246;2023-07-16T08:18:13;40.45;33.08;53.70;;
1754;Laerm;58380;48.312;9.246;2023-07-16T08:20:38;42.05;34.11;49.41;;
1754;Laerm;58380;48.312;9.246;2023-07-16T08:23:03;43.13;34.35;61.20;;
1754;Laerm;58380;48.312;9.246;2023-07-16T08:25:29;42.33;36.71;49.66;;
1754;Laerm;58380;48.312;9.246;2023-07-16T08:27:55;42.04;35.40;50.48;;
1754;Laerm;58380;48.312;9.246;2023-07-16T08:30:21;49.24;35.77;65.66;;
1754;Laerm;58380;48.312;9.246;2023-07-16T08:32:46;42.17;34.82;55.07;;
1754;Laerm;58380;48.312;9.246;2023-07-16T08:35:12;43.30;34.79;54.60;;
1754;Laerm;58380;48.312;9.246;2023-07-16T08:37:44;40.22;35.25;54.47;;
1754;Laerm;58380;48.312;9.246;2023-07-16T08:40:11;41.00;33.48;57.84;;
1754;Laerm;58380;48.312;9.246;2023-07-16T08:42:39;40.82;33.75;60.29;;
1754;Laerm;58380;48.312;9.246;2023-07-16T08:45:10;41.56;31.51;55.25;;
1754;Laerm;58380;48.312;9.246;2023-07-16T08:47:37;41.35;33.18;52.92;;
1754;Laerm;58380;48.312;9.246;2023-07-16T08:50:04;41.26;34.80;49.99;;
1754;Laerm;58380;48.312;9.246;2023-07-16T08:52:30;41.64;33.67;57.80;;
1754;Laerm;58380;48.312;9.246;2023-07-16T08:54:55;40.24;34.38;55.08;;
1754;Laerm;58380;48.312;9.246;2023-07-16T08:57:22;41.26;33.42;51.38;;
1754;Laerm;58380;48.312;9.246;2023-07-16T08:59:49;41.87;34.81;57.57;;
1754;Laerm;58380;48.312;9.246;2023-07-16T09:02:19;43.50;35.80;58.08;;
1754;Laerm;58380;48.312;9.246;2023-07-16T09:04:47;41.92;34.77;53.68;;
1754;Laerm;58380;48.312;9.246;2023-07-16T09:07:17;41.27;35.13;57.96;;
1754;Laerm;58380;48.312;9.246;2023-07-16T09:09:42;45.92;35.70;66.78;;
1754;Laerm;58380;48.312;9.246;2023-07-16T09:12:12;47.23;33.68;59.09;;
1754;Laerm;58380;48.312;9.246;2023-07-16T09:14:40;41.76;32.98;52.30;;
1754;Laerm;58380;48.312;9.246;2023-07-16T09:17:07;40.16;34.38;51.56;;
1754;Laerm;58380;48.312;9.246;2023-07-16T09:19:32;41.16;35.84;53.16;;
1754;Laerm;58380;48.312;9.246;2023-07-16T09:21:58;40.69;35.20;53.53;;
1754;Laerm;58380;48.312;9.246;2023-07-16T09:24:23;40.96;35.52;50.20;;
1754;Laerm;58380;48.312;9.246;2023-07-16T09:26:54;41.33;35.12;55.05;;
1754;Laerm;58380;48.312;9.246;2023-07-16T09:29:25;42.92;37.01;49.28;;
1754;Laerm;58380;48.312;9.246;2023-07-16T09:31:59;43.16;36.74;55.76;;
1754;Laerm;58380;48.312;9.246;2023-07-16T09:34:29;41.12;34.24;53.35;;
1754;Laerm;58380;48.312;9.246;2023-07-16T09:37:00;49.14;33.52;70.71;;
1754;Laerm;58380;48.312;9.246;2023-07-16T09:39:27;43.45;37.08;51.31;;
1754;Laerm;58380;48.312;9.246;2023-07-16T09:41:54;40.45;34.01;56.62;;
1754;Laerm;58380;48.312;9.246;2023-07-16T09:44:22;41.62;34.25;56.66;;
1754;Laerm;58380;48.312;9.246;2023-07-16T09:46:48;40.57;33.89;54.70;;
1754;Laerm;58380;48.312;9.246;2023-07-16T09:49:15;44.11;34.98;53.10;;
1754;Laerm;58380;48.312;9.246;2023-07-16T09:51:43;42.84;35.00;62.83;;
1754;Laerm;58380;48.312;9.246;2023-07-16T09:54:13;41.81;36.22;52.50;;
1754;Laerm;58380;48.312;9.246;2023-07-16T09:56:46;42.79;34.69;63.64;;
1754;Laerm;58380;48.312;9.246;2023-07-16T09:59:16;57.50;33.67;89.80;;
1754;Laerm;58380;48.312;9.246;2023-07-16T10:01:43;52.29;36.49;78.11;;
1754;Laerm;58380;48.312;9.246;2023-07-16T10:04:17;60.75;33.86;95.14;;
1754;Laerm;58380;48.312;9.246;2023-07-16T10:06:57;54.41;34.07;82.43;;
1754;Laerm;58380;48.312;9.246;2023-07-16T10:09:52;47.85;34.88;77.93;;
1754;Laerm;58380;48.312;9.246;2023-07-16T10:12:20;44.78;35.95;66.28;;
1754;Laerm;58380;48.312;9.246;2023-07-16T10:14:49;42.39;34.93;61.49;;
1754;Laerm;58380;48.312;9.246;2023-07-16T10:17:20;47.02;33.51;74.78;;
1754;Laerm;58380;48.312;9.246;2023-07-16T10:20:00;44.28;34.40;51.91;;
1754;Laerm;58380;48.312;9.246;2023-07-16T10:22:45;55.11;39.55;71.32;;
1754;Laerm;58380;48.312;9.246;2023-07-16T10:27:45;43.03;36.41;51.72;;
1754;Laerm;58380;48.312;9.246;2023-07-16T10:30:12;42.32;34.42;52.37;;
1754;Laerm;58380;48.312;9.246;2023-07-16T10:32:38;43.88;37.20;51.25;;
1754;Laerm;58380;48.312;9.246;2023-07-16T10:35:05;42.73;37.39;51.77;;
1754;Laerm;58380;48.312;9.246;2023-07-16T10:37:31;40.35;32.59;50.05;;
1754;Laerm;58380;48.312;9.246;2023-07-16T10:39:58;41.49;31.88;49.21;;
1754;Laerm;58380;48.312;9.246;2023-07-16T10:42:25;42.43;33.48;54.27;;
1754;Laerm;58380;48.312;9.246;2023-07-16T10:44:53;53.49;34.77;73.01;;
1754;Laerm;58380;48.312;9.246;2023-07-16T10:47:28;42.21;36.50;51.55;;
1754;Laerm;58380;48.312;9.246;2023-07-16T10:49:55;41.54;33.36;52.67;;
1754;Laerm;58380;48.312;9.246;2023-07-16T10:52:25;41.40;32.72;64.14;;
1754;Laerm;58380;48.312;9.246;2023-07-16T10:54:54;41.79;34.55;59.27;;
1754;Laerm;58380;48.312;9.246;2023-07-16T10:57:23;43.17;36.37;53.61;;
1754;Laerm;58380;48.312;9.246;2023-07-16T10:59:51;41.19;35.18;53.11;;
1754;Laerm;58380;48.312;9.246;2023-07-16T11:02:17;39.41;32.39;46.14;;
1754;Laerm;58380;48.312;9.246;2023-07-16T11:04:45;41.24;35.57;52.60;;
1754;Laerm;58380;48.312;9.246;2023-07-16T11:07:13;39.92;33.79;47.59;;
1754;Laerm;58380;48.312;9.246;2023-07-16T11:12:14;42.28;32.48;56.77;;
1754;Laerm;58380;48.312;9.246;2023-07-16T11:14:50;42.24;36.81;51.50;;
1754;Laerm;58380;48.312;9.246;2023-07-16T11:17:16;45.52;33.67;79.43;;
1754;Laerm;58380;48.312;9.246;2023-07-16T11:19:46;39.62;34.74;47.92;;
1754;Laerm;58380;48.312;9.246;2023-07-16T11:22:12;39.82;35.17;52.19;;
1754;Laerm;58380;48.312;9.246;2023-07-16T11:24:43;41.21;35.19;52.31;;
1754;Laerm;58380;48.312;9.246;2023-07-16T11:27:18;42.06;34.83;54.34;;
1754;Laerm;58380;48.312;9.246;2023-07-16T11:29:52;40.08;33.63;55.34;;
1754;Laerm;58380;48.312;9.246;2023-07-16T11:32:41;41.16;34.54;50.13;;
1754;Laerm;58380;48.312;9.246;2023-07-16T11:35:09;42.93;35.68;54.09;;
1754;Laerm;58380;48.312;9.246;2023-07-16T11:37:36;41.52;35.62;53.79;;
1754;Laerm;58380;48.312;9.246;2023-07-16T11:40:06;41.49;33.83;54.79;;
1754;Laerm;58380;48.312;9.246;2023-07-16T11:42:35;39.01;34.20;57.41;;
1754;Laerm;58380;48.312;9.246;2023-07-16T11:45:03;39.71;33.95;49.22;;
1754;Laerm;58380;48.312;9.246;2023-07-16T11:47:29;42.79;34.85;54.78;;
1754;Laerm;58380;48.312;9.246;2023-07-16T11:49:56;40.33;34.39;48.74;;
1754;Laerm;58380;48.312;9.246;2023-07-16T11:52:27;41.93;33.73;50.68;;
1754;Laerm;58380;48.312;9.246;2023-07-16T11:54:58;45.43;34.07;61.32;;
1754;Laerm;58380;48.312;9.246;2023-07-16T11:57:27;47.69;33.90;64.09;;
1754;Laerm;58380;48.312;9.246;2023-07-16T11:59:53;42.04;34.74;50.72;;
1754;Laerm;58380;48.312;9.246;2023-07-16T12:02:19;42.16;34.07;49.74;;
1754;Laerm;58380;48.312;9.246;2023-07-16T12:04:45;42.05;36.30;54.03;;
1754;Laerm;58380;48.312;9.246;2023-07-16T12:07:10;43.01;32.80;58.15;;
1754;Laerm;58380;48.312;9.246;2023-07-16T12:09:36;43.34;33.56;57.14;;
1754;Laerm;58380;48.312;9.246;2023-07-16T12:12:01;42.39;36.20;51.33;;
1754;Laerm;58380;48.312;9.246;2023-07-16T12:14:28;41.73;34.69;51.00;;
1754;Laerm;58380;48.312;9.246;2023-07-16T12:16:53;43.88;36.01;57.54;;
1754;Laerm;58380;48.312;9.246;2023-07-16T12:19:19;41.67;32.81;58.87;;
1754;Laerm;58380;48.312;9.246;2023-07-16T12:21:44;43.02;33.67;55.83;;
1754;Laerm;58380;48.312;9.246;2023-07-16T12:24:11;44.28;33.63;53.71;;
1754;Laerm;58380;48.312;9.246;2023-07-16T12:26:36;41.56;32.87;49.53;;
1754;Laerm;58380;48.312;9.246;2023-07-16T12:29:02;53.93;36.41;69.00;;
1754;Laerm;58380;48.312;9.246;2023-07-16T12:31:30;46.04;37.28;55.86;;
1754;Laerm;58380;48.312;9.246;2023-07-16T12:33:57;43.59;31.40;50.25;;
1754;Laerm;58380;48.312;9.246;2023-07-16T12:36:23;38.87;30.92;44.26;;
1754;Laerm;58380;48.312;9.246;2023-07-16T12:38:48;40.26;33.26;47.13;;
1754;Laerm;58380;48.312;9.246;2023-07-16T12:41:14;44.02;38.33;51.44;;
1754;Laerm;58380;48.312;9.246;2023-07-16T12:43:40;44.06;32.90;59.46;;
1754;Laerm;58380;48.312;9.246;2023-07-16T12:46:06;41.63;34.14;48.45;;
1754;Laerm;58380;48.312;9.246;2023-07-16T12:48:32;42.52;32.19;48.81;;
1754;Laerm;58380;48.312;9.246;2023-07-16T12:50:57;42.70;34.19;53.40;;
1754;Laerm;58380;48.312;9.246;2023-07-16T12:53:24;41.43;32.59;50.87;;
1754;Laerm;58380;48.312;9.246;2023-07-16T12:55:50;41.25;34.12;48.22;;
1754;Laerm;58380;48.312;9.246;2023-07-16T12:58:16;41.92;34.28;49.53;;
1754;Laerm;58380;48.312;9.246;2023-07-16T13:00:41;42.18;32.01;51.54;;
1754;Laerm;58380;48.312;9.246;2023-07-16T13:03:07;41.64;35.05;50.40;;
1754;Laerm;58380;48.312;9.246;2023-07-16T13:05:38;41.21;35.07;55.91;;
1754;Laerm;58380;48.312;9.246;2023-07-16T13:08:04;42.88;34.61;56.14;;
1754;Laerm;58380;48.312;9.246;2023-07-16T13:10:30;41.15;34.16;51.61;;
1754;Laerm;58380;48.312;9.246;2023-07-16T13:12:55;40.90;34.11;51.16;;
1754;Laerm;58380;48.312;9.246;2023-07-16T13:15:21;42.26;35.83;57.70;;
1754;Laerm;58380;48.312;9.246;2023-07-16T13:17:46;44.07;35.07;55.51;;
1754;Laerm;58380;48.312;9.246;2023-07-16T13:20:13;40.90;33.87;50.55;;
1754;Laerm;58380;48.312;9.246;2023-07-16T13:22:38;43.64;32.12;53.89;;
1754;Laerm;58380;48.312;9.246;2023-07-16T13:25:04;41.40;35.94;49.93;;
1754;Laerm;58380;48.312;9.246;2023-07-16T13:27:30;43.25;36.56;51.44;;
1754;Laerm;58380;48.312;9.246;2023-07-16T13:29:55;42.60;33.91;51.82;;
1754;Laerm;58380;48.312;9.246;2023-07-16T13:32:20;42.32;32.81;55.20;;
1754;Laerm;58380;48.312;9.246;2023-07-16T13:34:46;42.82;34.42;56.66;;
1754;Laerm;58380;48.312;9.246;2023-07-16T13:37:11;43.47;36.15;62.04;;
1754;Laerm;58380;48.312;9.246;2023-07-16T13:39:37;41.46;31.68;56.08;;
1754;Laerm;58380;48.312;9.246;2023-07-16T13:42:03;43.47;34.94;54.74;;
1754;Laerm;58380;48.312;9.246;2023-07-16T13:44:28;40.86;33.96;50.78;;
1754;Laerm;58380;48.312;9.246;2023-07-16T13:46:53;41.50;34.78;53.44;;
1754;Laerm;58380;48.312;9.246;2023-07-16T13:49:19;40.92;34.82;52.57;;
1754;Laerm;58380;48.312;9.246;2023-07-16T13:51:44;43.17;33.64;54.78;;
1754;Laerm;58380;48.312;9.246;2023-07-16T13:54:11;43.78;36.25;50.39;;
1754;Laerm;58380;48.312;9.246;2023-07-16T13:56:37;43.94;34.62;53.91;;
1754;Laerm;58380;48.312;9.246;2023-07-16T13:59:02;44.18;33.91;54.09;;
1754;Laerm;58380;48.312;9.246;2023-07-16T14:01:29;44.39;36.84;55.45;;
1754;Laerm;58380;48.312;9.246;2023-07-16T14:03:54;45.07;34.48;55.04;;
1754;Laerm;58380;48.312;9.246;2023-07-16T14:06:20;44.02;34.47;53.13;;
1754;Laerm;58380;48.312;9.246;2023-07-16T14:08:46;45.74;33.31;56.17;;
1754;Laerm;58380;48.312;9.246;2023-07-16T14:11:11;46.63;31.62;53.65;;
1754;Laerm;58380;48.312;9.246;2023-07-16T14:13:37;46.76;33.94;62.30;;
1754;Laerm;58380;48.312;9.246;2023-07-16T14:16:02;43.49;34.09;54.49;;
1754;Laerm;58380;48.312;9.246;2023-07-16T14:18:28;42.58;33.34;53.23;;
1754;Laerm;58380;48.312;9.246;2023-07-16T14:20:54;44.79;34.32;56.69;;
1754;Laerm;58380;48.312;9.246;2023-07-16T14:23:19;43.56;36.59;52.38;;
1754;Laerm;58380;48.312;9.246;2023-07-16T14:25:45;52.53;36.74;66.94;;
1754;Laerm;58380;48.312;9.246;2023-07-16T14:28:11;45.01;32.18;55.07;;
1754;Laerm;58380;48.312;9.246;2023-07-16T14:30:36;43.11;35.17;53.76;;
1754;Laerm;58380;48.312;9.246;2023-07-16T14:33:02;43.73;33.62;50.12;;
1754;Laerm;58380;48.312;9.246;2023-07-16T14:35:30;51.38;34.66;71.21;;
1754;Laerm;58380;48.312;9.246;2023-07-16T14:37:55;44.22;34.77;62.74;;
1754;Laerm;58380;48.312;9.246;2023-07-16T14:40:24;43.77;34.14;53.76;;
1754;Laerm;58380;48.312;9.246;2023-07-16T14:42:49;45.91;34.35;56.30;;
1754;Laerm;58380;48.312;9.246;2023-07-16T14:45:15;45.44;33.10;60.28;;
1754;Laerm;58380;48.312;9.246;2023-07-16T14:47:40;44.99;35.22;53.76;;
1754;Laerm;58380;48.312;9.246;2023-07-16T14:50:06;43.44;35.47;55.71;;
1754;Laerm;58380;48.312;9.246;2023-07-16T14:52:31;44.16;34.96;54.32;;
1754;Laerm;58380;48.312;9.246;2023-07-16T14:54:57;45.35;32.10;52.91;;
1754;Laerm;58380;48.312;9.246;2023-07-16T14:57:22;47.75;33.17;60.67;;
1754;Laerm;58380;48.312;9.246;2023-07-16T14:59:48;45.66;35.35;54.90;;
1754;Laerm;58380;48.312;9.246;2023-07-16T15:02:14;53.26;35.21;67.10;;
1754;Laerm;58380;48.312;9.246;2023-07-16T15:04:39;43.84;32.84;53.26;;
1754;Laerm;58380;48.312;9.246;2023-07-16T15:07:05;45.57;32.28;53.69;;
1754;Laerm;58380;48.312;9.246;2023-07-16T15:09:31;46.79;35.25;54.32;;
1754;Laerm;58380;48.312;9.246;2023-07-16T15:11:56;46.36;37.28;53.71;;
1754;Laerm;58380;48.312;9.246;2023-07-16T15:14:22;44.99;34.44;54.37;;
1754;Laerm;58380;48.312;9.246;2023-07-16T15:16:47;46.73;36.36;53.73;;
1754;Laerm;58380;48.312;9.246;2023-07-16T15:19:13;46.75;35.81;53.57;;
1754;Laerm;58380;48.312;9.246;2023-07-16T15:21:38;45.24;35.74;54.52;;
1754;Laerm;58380;48.312;9.246;2023-07-16T15:24:05;46.58;34.46;65.31;;
1754;Laerm;58380;48.312;9.246;2023-07-16T15:26:31;48.92;35.31;59.90;;
1754;Laerm;58380;48.312;9.246;2023-07-16T15:28:57;47.15;36.83;55.19;;
1754;Laerm;58380;48.312;9.246;2023-07-16T15:31:23;48.57;39.23;60.58;;
1754;Laerm;58380;48.312;9.246;2023-07-16T15:33:55;54.69;38.82;75.15;;
1754;Laerm;58380;48.312;9.246;2023-07-16T15:36:21;47.59;33.71;57.03;;
1754;Laerm;58380;48.312;9.246;2023-07-16T15:38:47;48.32;34.88;53.47;;
1754;Laerm;58380;48.312;9.246;2023-07-16T15:41:19;48.42;37.59;54.07;;
1754;Laerm;58380;48.312;9.246;2023-07-16T15:43:46;47.55;38.23;53.50;;
1754;Laerm;58380;48.312;9.246;2023-07-16T15:46:15;47.97;39.87;55.30;;
1754;Laerm;58380;48.312;9.246;2023-07-16T15:48:41;47.68;38.16;55.21;;
1754;Laerm;58380;48.312;9.246;2023-07-16T15:51:17;47.25;36.75;55.44;;
1754;Laerm;58380;48.312;9.246;2023-07-16T15:54:03;52.84;39.10;68.86;;
1754;Laerm;58380;48.312;9.246;2023-07-16T15:56:33;49.08;38.11;59.73;;
1754;Laerm;58380;48.312;9.246;2023-07-16T15:58:59;45.97;37.27;52.74;;
1754;Laerm;58380;48.312;9.246;2023-07-16T16:01:26;48.23;39.20;54.63;;
1754;Laerm;58380;48.312;9.246;2023-07-16T16:03:52;48.00;38.81;53.22;;
1754;Laerm;58380;48.312;9.246;2023-07-16T16:06:19;48.14;38.70;54.20;;
1754;Laerm;58380;48.312;9.246;2023-07-16T16:08:45;47.83;41.01;54.86;;
1754;Laerm;58380;48.312;9.246;2023-07-16T16:11:11;44.71;35.74;53.23;;
1754;Laerm;58380;48.312;9.246;2023-07-16T16:13:37;44.11;33.72;54.59;;
1754;Laerm;58380;48.312;9.246;2023-07-16T16:16:02;44.04;36.44;53.49;;
1754;Laerm;58380;48.312;9.246;2023-07-16T16:18:30;44.71;39.74;51.05;;
1754;Laerm;58380;48.312;9.246;2023-07-16T16:20:56;44.64;37.64;51.85;;
1754;Laerm;58380;48.312;9.246;2023-07-16T16:23:22;45.21;35.96;55.15;;
1754;Laerm;58380;48.312;9.246;2023-07-16T16:25:47;44.79;35.59;51.21;;
1754;Laerm;58380;48.312;9.246;2023-07-16T16:28:13;44.61;34.35;52.88;;
1754;Laerm;58380;48.312;9.246;2023-07-16T16:30:40;45.84;41.26;53.55;;
1754;Laerm;58380;48.312;9.246;2023-07-16T16:33:07;40.83;32.42;55.54;;
1754;Laerm;58380;48.312;9.246;2023-07-16T16:35:36;42.83;37.31;57.89;;
1754;Laerm;58380;48.312;9.246;2023-07-16T16:38:10;41.90;35.14;52.30;;
1754;Laerm;58380;48.312;9.246;2023-07-16T16:40:39;44.07;36.94;55.59;;
1754;Laerm;58380;48.312;9.246;2023-07-16T16:43:04;46.18;36.47;64.21;;
1754;Laerm;58380;48.312;9.246;2023-07-16T16:45:30;42.76;36.74;54.59;;
1754;Laerm;58380;48.312;9.246;2023-07-16T16:47:56;44.70;37.45;54.65;;
1754;Laerm;58380;48.312;9.246;2023-07-16T16:50:22;43.35;35.57;63.08;;
1754;Laerm;58380;48.312;9.246;2023-07-16T16:52:48;44.14;35.36;54.52;;
1754;Laerm;58380;48.312;9.246;2023-07-16T16:55:14;42.84;36.61;51.26;;
1754;Laerm;58380;48.312;9.246;2023-07-16T16:57:40;46.93;36.43;61.24;;
1754;Laerm;58380;48.312;9.246;2023-07-16T17:00:06;43.45;34.33;50.42;;
1754;Laerm;58380;48.312;9.246;2023-07-16T17:02:37;44.79;36.11;54.32;;
1754;Laerm;58380;48.312;9.246;2023-07-16T17:05:04;44.21;35.27;57.48;;
1754;Laerm;58380;48.312;9.246;2023-07-16T17:07:30;43.28;33.39;53.09;;
1754;Laerm;58380;48.312;9.246;2023-07-16T17:09:56;41.62;33.21;49.51;;
1754;Laerm;58380;48.312;9.246;2023-07-16T17:12:22;43.59;35.87;56.36;;
1754;Laerm;58380;48.312;9.246;2023-07-16T17:14:48;44.86;34.38;62.06;;
1754;Laerm;58380;48.312;9.246;2023-07-16T17:17:14;42.47;35.09;55.78;;
1754;Laerm;58380;48.312;9.246;2023-07-16T17:19:46;44.88;34.81;59.67;;
1754;Laerm;58380;48.312;9.246;2023-07-16T17:22:13;42.59;33.22;58.09;;
1754;Laerm;58380;48.312;9.246;2023-07-16T17:24:43;44.43;36.12;56.26;;
1754;Laerm;58380;48.312;9.246;2023-07-16T17:27:08;45.39;35.93;62.26;;
1754;Laerm;58380;48.312;9.246;2023-07-16T17:29:44;43.36;33.08;56.57;;
1754;Laerm;58380;48.312;9.246;2023-07-16T17:32:13;39.80;31.20;50.54;;
1754;Laerm;58380;48.312;9.246;2023-07-16T17:34:39;43.85;35.31;51.84;;
1754;Laerm;58380;48.312;9.246;2023-07-16T17:37:07;43.00;33.92;52.37;;
1754;Laerm;58380;48.312;9.246;2023-07-16T17:39:33;44.06;32.34;58.80;;
1754;Laerm;58380;48.312;9.246;2023-07-16T17:42:02;42.85;31.39;66.26;;
1754;Laerm;58380;48.312;9.246;2023-07-16T17:44:29;42.70;32.16;55.58;;
1754;Laerm;58380;48.312;9.246;2023-07-16T17:46:56;45.27;34.50;58.11;;
1754;Laerm;58380;48.312;9.246;2023-07-16T17:49:21;45.80;37.22;60.17;;
1754;Laerm;58380;48.312;9.246;2023-07-16T17:51:47;43.92;33.84;56.83;;
1754;Laerm;58380;48.312;9.246;2023-07-16T17:54:12;43.47;35.26;62.93;;
1754;Laerm;58380;48.312;9.246;2023-07-16T17:56:38;43.49;33.60;58.48;;
1754;Laerm;58380;48.312;9.246;2023-07-16T17:59:03;42.60;34.20;56.46;;
1754;Laerm;58380;48.312;9.246;2023-07-16T18:01:28;50.62;34.47;70.11;;
1754;Laerm;58380;48.312;9.246;2023-07-16T18:03:57;42.07;32.27;53.69;;
1754;Laerm;58380;48.312;9.246;2023-07-16T18:06:22;42.29;33.71;53.96;;
1754;Laerm;58380;48.312;9.246;2023-07-16T18:08:48;40.12;33.63;49.45;;
1754;Laerm;58380;48.312;9.246;2023-07-16T18:11:13;41.55;31.45;54.82;;
1754;Laerm;58380;48.312;9.246;2023-07-16T18:13:39;41.08;33.73;49.86;;
1754;Laerm;58380;48.312;9.246;2023-07-16T18:16:04;40.63;33.26;55.54;;
1754;Laerm;58380;48.312;9.246;2023-07-16T18:18:29;41.33;34.19;51.29;;
1754;Laerm;58380;48.312;9.246;2023-07-16T18:20:56;41.33;34.88;48.02;;
1754;Laerm;58380;48.312;9.246;2023-07-16T18:23:22;42.65;37.08;50.08;;
1754;Laerm;58380;48.312;9.246;2023-07-16T18:25:48;43.60;33.58;50.82;;
1754;Laerm;58380;48.312;9.246;2023-07-16T18:28:13;43.18;34.86;48.78;;
1754;Laerm;58380;48.312;9.246;2023-07-16T18:30:39;45.79;36.53;57.92;;
1754;Laerm;58380;48.312;9.246;2023-07-16T18:33:04;44.71;36.35;50.81;;
1754;Laerm;58380;48.312;9.246;2023-07-16T18:35:30;45.22;37.11;49.26;;
1754;Laerm;58380;48.312;9.246;2023-07-16T18:37:57;45.49;32.67;51.83;;
1754;Laerm;58380;48.312;9.246;2023-07-16T18:40:23;42.24;31.92;49.94;;
1754;Laerm;58380;48.312;9.246;2023-07-16T18:42:48;42.45;35.37;54.40;;
1754;Laerm;58380;48.312;9.246;2023-07-16T18:45:14;43.61;33.20;51.20;;
1754;Laerm;58380;48.312;9.246;2023-07-16T18:47:39;44.30;37.20;48.85;;
1754;Laerm;58380;48.312;9.246;2023-07-16T18:50:05;44.08;33.87;49.71;;
1754;Laerm;58380;48.312;9.246;2023-07-16T18:52:33;46.03;39.77;51.04;;
1754;Laerm;58380;48.312;9.246;2023-07-16T19:26:29;49.14;43.46;52.63;;
1754;Laerm;58380;48.312;9.246;2023-07-16T19:34:30;50.75;44.32;53.97;;
1754;Laerm;58380;48.312;9.246;2023-07-16T19:57:51;51.14;43.80;54.30;;
1754;Laerm;58380;48.312;9.246;2023-07-16T20:08:10;51.58;45.64;56.20;;
1754;Laerm;58380;48.312;9.246;2023-07-16T20:11:01;51.70;45.91;54.57;;
1754;Laerm;58380;48.312;9.246;2023-07-16T20:13:30;51.48;44.94;54.37;;
1754;Laerm;58380;48.312;9.246;2023-07-16T20:19:26;52.06;45.85;57.81;;
1754;Laerm;58380;48.312;9.246;2023-07-16T20:22:07;51.33;39.89;54.41;;
1754;Laerm;58380;48.312;9.246;2023-07-16T20:50:30;49.82;33.83;54.69;;
1754;Laerm;58380;48.312;9.246;2023-07-16T20:53:02;49.44;43.22;52.17;;
1754;Laerm;58380;48.312;9.246;2023-07-16T20:58:10;49.23;43.37;52.48;;
1754;Laerm;58380;48.312;9.246;2023-07-16T21:04:00;50.61;41.96;54.01;;
1754;Laerm;58380;48.312;9.246;2023-07-16T21:06:31;50.60;43.86;53.96;;
1754;Laerm;58380;48.312;9.246;2023-07-16T21:16:55;50.04;40.29;53.70;;
1754;Laerm;58380;48.312;9.246;2023-07-16T21:19:47;50.06;40.18;53.94;;
1754;Laerm;58380;48.312;9.246;2023-07-16T21:22:28;49.26;41.09;59.31;;
1754;Laerm;58380;48.312;9.246;2023-07-16T21:25:06;48.96;41.67;60.88;;
1754;Laerm;58380;48.312;9.246;2023-07-16T21:27:46;48.61;40.60;52.44;;
1754;Laerm;58380;48.312;9.246;2023-07-16T21:30:13;48.50;41.85;52.22;;
1754;Laerm;58380;48.312;9.246;2023-07-16T21:32:42;48.47;39.30;56.73;;
1754;Laerm;58380;48.312;9.246;2023-07-16T21:35:09;48.62;38.43;53.05;;
1754;Laerm;58380;48.312;9.246;2023-07-16T21:37:35;48.47;39.63;51.99;;
1754;Laerm;58380;48.312;9.246;2023-07-16T21:40:01;48.58;39.09;52.21;;
